map of LHW home
LHW - Airport
Location
City:  Lanzhou, Gansu, China
Name:Lanzhou Zhongchuan International Airport
Old (Alt.):Lanzhou West
ICAO:ZLLL
IATA:LHW

Details
Type:Airport (Aerodrome, Airfield)
Use:Public/Civil, International (customs port of entry)
Latitude:3631'N (36.517)
Longitude:10337'E (103.622)
Elevation:6388 ft (1947 m)
Variation:2.35W (WMM2015 magnetic declination)
-0.02 annual change
Runways:1
Longest:11811 × 148 ft (3600 × 45 m), paved

Time
Time Zone:UTC+8
Local Time:

Weather
METAR:ZLLL 180600Z VRB01MPS 9999 FEW046 M03/M18 Q1018 NOSIG

Related Locations
Nearby:
Farthest:SCIS: 12279 mi / 19762 km
Isla Santa Maria [Puerto Sur Airport], BI, CL

Find:

   beyond  
but within

Other Information
Maps:
NOTAMs:
Links:
Sources:

  
  • flag of China
  

Airport Diagram

Airport diagram for LHW

Airport diagram PDF

Sectional Chart

Flight Planning
at skyvector.com

Satellite Image

Google Maps Satellite view

 

Copyright © 2004-2019 Karl L. Swartz. All rights reserved.
The Great Circle Mapper name and logo are trademarks of the Great Circle Mapper.
All other trademarks mentioned herein belong to their respective owners.
Please see credits for attibutions and further copyright information.

  Follow gcmap on Facebook Follow gcmap on Twitter Follow gcmap on Google+ GCmap on LinkedIn

hCard Microformat

Geo Microformat